Time;durP1;ratioP1;P1;durP2;ratioP2;P2;SDS_P1;SDS_P2;PMS_P1;PMS_P2;Temp;Humidity;BMP_temperature;BMP_pressure;BME280_temperature;BME280_humidity;BME280_pressure;Samples;Min_cycle;Max_cycle;Signal;HPM_P1;HPM_P2
2023/04/27 00:01:45;;;;;;;7.00;4.10;;;;;;;11.08;100.00;99711.80;105761;1259;61794;-55
2023/04/27 00:04:13;;;;;;;9.70;4.40;;;;;;;11.06;100.00;99710.23;105933;1256;74432;-58
2023/04/27 00:06:41;;;;;;;9.50;4.90;;;;;;;11.05;100.00;99713.45;105597;1256;69213;-55
2023/04/27 00:09:08;;;;;;;9.10;4.50;;;;;;;11.04;100.00;99717.02;105376;1254;75375;-54
2023/04/27 00:11:35;;;;;;;7.90;4.80;;;;;;;11.05;100.00;99712.00;105334;1266;62906;-55
2023/04/27 00:14:02;;;;;;;11.60;5.40;;;;;;;11.05;100.00;99708.63;105524;1257;61700;-56
2023/04/27 00:16:30;;;;;;;10.50;5.40;;;;;;;11.05;100.00;99707.11;105773;1251;75963;-55
2023/04/27 00:18:57;;;;;;;10.70;5.20;;;;;;;11.03;100.00;99705.42;105735;1251;68719;-56
2023/04/27 00:21:25;;;;;;;8.40;4.90;;;;;;;11.01;100.00;99707.62;105675;1257;73881;-56
2023/04/27 00:23:53;;;;;;;11.30;5.40;;;;;;;10.99;100.00;99706.54;105606;1264;61833;-56
2023/04/27 00:26:21;;;;;;;9.80;5.60;;;;;;;10.99;100.00;99702.49;105662;1252;62835;-55
2023/04/27 00:28:49;;;;;;;13.70;5.70;;;;;;;10.99;100.00;99702.50;106008;1256;75468;-58
2023/04/27 00:31:16;;;;;;;10.40;4.50;;;;;;;11.00;100.00;99704.14;105501;1256;69746;-55
2023/04/27 00:33:43;;;;;;;8.30;4.00;;;;;;;11.01;100.00;99699.88;105753;1254;73722;-55
2023/04/27 00:36:10;;;;;;;10.50;5.30;;;;;;;11.02;100.00;99701.02;105806;1264;61458;-55
2023/04/27 00:38:37;;;;;;;8.50;5.00;;;;;;;11.03;100.00;99699.89;105757;1256;61231;-56
2023/04/27 00:41:06;;;;;;;11.00;5.40;;;;;;;11.04;100.00;99697.33;105818;1256;75621;-59
2023/04/27 00:43:41;;;;;;;11.40;4.90;;;;;;;11.03;100.00;99699.54;105718;1258;69502;-56
2023/04/27 00:46:08;;;;;;;8.90;4.90;;;;;;;11.05;100.00;99697.71;105569;1254;75092;-57
2023/04/27 00:48:36;;;;;;;8.90;5.50;;;;;;;11.07;100.00;99695.75;105679;1259;63047;-56
2023/04/27 00:51:05;;;;;;;8.80;5.30;;;;;;;11.11;100.00;99697.00;105887;1251;62756;-56
2023/04/27 00:53:32;;;;;;;11.50;5.00;;;;;;;11.12;100.00;99695.52;105780;1253;75657;-56
2023/04/27 00:55:59;;;;;;;11.30;5.30;;;;;;;11.12;100.00;99691.73;105518;1256;69838;-56
2023/04/27 00:58:27;;;;;;;10.90;5.20;;;;;;;11.11;100.00;99694.36;105600;1256;74891;-57
2023/04/27 01:00:55;;;;;;;12.60;6.50;;;;;;;11.11;100.00;99698.08;105822;1252;61254;-57
2023/04/27 01:03:22;;;;;;;11.80;5.70;;;;;;;11.11;100.00;99696.91;105624;1256;61689;-55
2023/04/27 01:05:50;;;;;;;10.50;6.10;;;;;;;11.07;100.00;99692.59;105701;1256;75541;-56
2023/04/27 01:08:17;;;;;;;12.80;5.50;;;;;;;11.04;100.00;99689.37;105632;1256;69381;-56
2023/04/27 01:10:44;;;;;;;14.70;6.80;;;;;;;10.99;100.00;99691.89;105942;1254;73940;-58
2023/04/27 01:13:12;;;;;;;18.60;6.90;;;;;;;10.90;100.00;99694.17;105669;1258;63018;-55
2023/04/27 01:15:39;;;;;;;14.30;7.10;;;;;;;10.86;100.00;99697.05;105821;1251;62014;-56
2023/04/27 01:18:08;;;;;;;14.80;6.90;;;;;;;10.81;100.00;99698.98;105682;1257;76386;-59
2023/04/27 01:20:37;;;;;;;11.60;6.60;;;;;;;10.76;100.00;99693.46;105425;1260;68422;-54
2023/04/27 01:23:05;;;;;;;15.30;6.90;;;;;;;10.73;100.00;99691.14;105680;1256;75448;-58
2023/04/27 01:25:32;;;;;;;14.20;7.40;;;;;;;10.70;100.00;99691.73;105501;1255;63324;-57
2023/04/27 01:28:01;;;;;;;14.90;7.00;;;;;;;10.66;100.00;99687.75;105599;1257;62889;-58
2023/04/27 01:30:29;;;;;;;14.70;6.40;;;;;;;10.62;100.00;99687.27;105637;1251;76350;-55
2023/04/27 01:32:57;;;;;;;14.30;6.70;;;;;;;10.60;100.00;99686.89;105594;1260;69537;-55
2023/04/27 01:35:25;;;;;;;14.20;5.80;;;;;;;10.57;100.00;99683.48;105512;1251;75336;-55
2023/04/27 01:37:58;;;;;;;12.10;6.60;;;;;;;10.55;100.00;99683.92;105532;1254;62798;-55
2023/04/27 01:40:26;;;;;;;12.20;5.90;;;;;;;10.52;100.00;99681.98;106049;1255;61664;-55
2023/04/27 01:42:53;;;;;;;10.20;5.80;;;;;;;10.54;100.00;99679.79;105623;1254;76213;-59
2023/04/27 01:45:20;;;;;;;11.80;6.00;;;;;;;10.53;100.00;99679.02;105648;1255;68432;-55
2023/04/27 01:47:50;;;;;;;12.40;6.20;;;;;;;10.54;100.00;99677.23;105607;1257;74219;-59
2023/04/27 01:50:19;;;;;;;9.80;5.90;;;;;;;10.53;100.00;99675.41;105567;1256;62424;-57
2023/04/27 01:52:46;;;;;;;11.50;6.10;;;;;;;10.53;100.00;99674.56;106127;1251;62508;-57
2023/04/27 01:55:13;;;;;;;13.30;6.10;;;;;;;10.56;100.00;99672.61;105471;1252;76539;-56
2023/04/27 01:57:41;;;;;;;16.30;6.50;;;;;;;10.61;100.00;99674.06;105795;1252;69565;-56
2023/04/27 02:00:08;;;;;;;10.50;6.10;;;;;;;10.65;100.00;99670.55;105715;1260;74037;-61
2023/04/27 02:02:49;;;;;;;9.20;5.80;;;;;;;10.70;100.00;99677.42;105352;1258;61733;-56
2023/04/27 02:05:18;;;;;;;10.90;5.80;;;;;;;10.73;100.00;99675.05;105687;1257;62756;-55
2023/04/27 02:07:46;;;;;;;10.20;5.80;;;;;;;10.75;100.00;99665.27;105946;1257;76471;-58
2023/04/27 02:10:14;;;;;;;9.00;4.90;;;;;;;10.73;100.00;99668.44;105743;1257;69750;-55
2023/04/27 02:12:41;;;;;;;8.40;5.30;;;;;;;10.75;100.00;99668.83;105809;1257;75420;-59
2023/04/27 02:15:08;;;;;;;7.80;5.10;;;;;;;10.77;100.00;99665.67;105649;1255;61432;-55
2023/04/27 02:17:37;;;;;;;9.50;4.90;;;;;;;10.80;100.00;99662.59;105741;1254;61819;-57
2023/04/27 02:20:06;;;;;;;9.50;4.60;;;;;;;10.85;100.00;99659.82;105847;1257;76498;-55
2023/04/27 02:22:33;;;;;;;9.20;4.80;;;;;;;10.88;100.00;99655.86;105753;1257;69586;-55
2023/04/27 02:25:00;;;;;;;12.20;5.00;;;;;;;10.92;100.00;99658.55;105614;1254;74637;-55
2023/04/27 02:27:28;;;;;;;9.30;4.60;;;;;;;10.95;100.00;99659.34;105729;1257;62845;-56
2023/04/27 02:29:56;;;;;;;6.30;3.50;;;;;;;11.00;100.00;99664.11;105721;1253;62512;-56
2023/04/27 02:32:24;;;;;;;8.80;4.50;;;;;;;11.06;100.00;99660.20;105746;1251;75137;-55
2023/04/27 02:34:51;;;;;;;8.50;4.40;;;;;;;11.13;100.00;99661.38;105815;1251;69647;-58
2023/04/27 02:37:18;;;;;;;9.50;4.90;;;;;;;11.22;100.00;99661.80;105515;1257;74069;-55
2023/04/27 02:39:46;;;;;;;8.80;4.80;;;;;;;11.31;100.00;99658.10;105698;1254;63215;-54
2023/04/27 02:42:13;;;;;;;7.60;4.00;;;;;;;11.41;100.00;99654.36;105868;1257;61333;-55
2023/04/27 02:44:41;;;;;;;6.50;3.80;;;;;;;11.49;100.00;99653.98;105670;1254;76198;-54
2023/04/27 02:47:09;;;;;;;6.10;3.80;;;;;;;11.55;100.00;99652.02;105799;1251;69246;-58
2023/04/27 02:49:36;;;;;;;6.70;4.10;;;;;;;11.63;100.00;99652.79;105439;1251;75070;-54
2023/04/27 02:52:03;;;;;;;7.30;3.60;;;;;;;11.77;100.00;99655.81;105947;1251;64316;-59
2023/04/27 02:54:31;;;;;;;6.00;3.60;;;;;;;11.89;100.00;99653.16;105391;1260;63364;-54
2023/04/27 02:56:58;;;;;;;8.10;4.50;;;;;;;11.94;100.00;99649.05;105647;1251;76333;-55
2023/04/27 02:59:25;;;;;;;5.50;3.70;;;;;;;11.96;100.00;99642.36;106023;1257;68243;-57
2023/04/27 03:01:52;;;;;;;5.90;3.10;;;;;;;11.98;100.00;99646.09;105831;1251;74218;-56
2023/04/27 03:04:19;;;;;;;5.70;3.10;;;;;;;12.00;100.00;99649.98;105933;1251;64529;-55
2023/04/27 03:06:47;;;;;;;6.90;4.00;;;;;;;12.04;100.00;99645.10;105644;1250;62751;-55
2023/04/27 03:09:14;;;;;;;5.70;4.00;;;;;;;12.08;100.00;99641.59;105707;1251;76328;-55
2023/04/27 03:11:42;;;;;;;6.00;3.60;;;;;;;12.14;100.00;99644.41;105862;1254;69563;-59
2023/04/27 03:14:10;;;;;;;6.50;3.30;;;;;;;12.21;100.00;99644.06;105327;1251;75717;-59
2023/04/27 03:16:37;;;;;;;6.70;3.60;;;;;;;12.27;100.00;99644.36;105650;1257;63251;-56
2023/04/27 03:19:04;;;;;;;5.80;3.30;;;;;;;12.34;100.00;99644.16;105654;1252;62792;-55
2023/04/27 03:21:31;;;;;;;7.90;3.50;;;;;;;12.38;100.00;99647.08;105522;1257;76367;-56
2023/04/27 03:23:58;;;;;;;5.80;3.40;;;;;;;12.40;100.00;99647.20;105751;1258;69256;-56
2023/04/27 03:26:26;;;;;;;7.80;3.60;;;;;;;12.43;100.00;99651.11;105316;1258;74022;-55
2023/04/27 03:28:53;;;;;;;5.40;3.70;;;;;;;12.46;100.00;99643.77;105733;1253;62464;-54
2023/04/27 03:31:20;;;;;;;5.90;3.80;;;;;;;12.49;100.00;99643.20;105704;1257;61745;-56
2023/04/27 03:33:48;;;;;;;6.80;3.80;;;;;;;12.55;100.00;99641.67;105852;1251;75492;-57
2023/04/27 03:36:15;;;;;;;6.20;3.30;;;;;;;12.62;100.00;99646.58;105383;1251;69250;-56
2023/04/27 03:38:42;;;;;;;6.20;3.50;;;;;;;12.70;100.00;99641.13;105666;1257;75070;-54
2023/04/27 03:41:10;;;;;;;6.50;3.50;;;;;;;12.78;100.00;99634.27;105670;1257;61710;-57
2023/04/27 03:43:37;;;;;;;7.50;4.00;;;;;;;12.88;100.00;99637.99;105875;1254;62792;-55
2023/04/27 03:46:05;;;;;;;8.30;4.00;;;;;;;13.01;100.00;99637.68;105655;1251;75961;-56
2023/04/27 03:48:32;;;;;;;8.60;3.40;;;;;;;13.16;100.00;99639.13;105652;1251;67473;-56
2023/04/27 03:51:00;;;;;;;5.70;3.10;;;;;;;13.26;100.00;99641.31;105698;1251;75671;-55
2023/04/27 03:53:27;;;;;;;6.00;3.50;;;;;;;13.39;100.00;99650.75;105565;1251;62669;-56
2023/04/27 03:55:54;;;;;;;7.20;3.70;;;;;;;13.52;100.00;99655.90;105250;1257;62935;-56
2023/04/27 03:58:22;;;;;;;6.40;3.50;;;;;;;13.56;100.00;99644.61;105674;1251;75975;-58
2023/04/27 04:01:10;;;;;;;6.20;3.60;;;;;;;13.59;100.00;99650.30;106027;1253;68262;-55
2023/04/27 04:03:37;;;;;;;10.50;3.60;;;;;;;13.59;100.00;99653.01;105604;1260;75358;-56
2023/04/27 04:06:05;;;;;;;5.10;3.40;;;;;;;13.54;100.00;99647.57;106000;1257;62908;-56
2023/04/27 04:08:33;;;;;;;8.00;3.60;;;;;;;13.50;100.00;99649.08;105662;1257;61469;-56
2023/04/27 04:11:00;;;;;;;6.20;3.70;;;;;;;13.50;100.00;99645.25;105457;1258;76281;-55
2023/04/27 04:13:27;;;;;;;7.30;3.70;;;;;;;13.52;100.00;99647.52;105886;1254;68708;-59
2023/04/27 04:16:07;;;;;;;4.60;2.90;;;;;;;13.55;100.00;99660.13;105264;1254;74561;-55
2023/04/27 04:18:35;;;;;;;5.60;3.30;;;;;;;13.56;100.00;99654.96;105391;1258;61643;-56
2023/04/27 04:21:03;;;;;;;6.00;3.60;;;;;;;13.58;100.00;99652.73;105774;1251;61761;-58
2023/04/27 04:23:31;;;;;;;10.30;4.30;;;;;;;13.62;100.00;99652.69;105382;1257;75851;-56
2023/04/27 04:26:00;;;;;;;6.50;3.00;;;;;;;13.67;100.00;99647.64;105896;1255;68539;-59
2023/04/27 04:28:31;;;;;;;5.90;3.10;;;;;;;13.74;100.00;99636.00;105848;1254;74094;-55
2023/04/27 04:31:03;;;;;;;5.70;3.40;;;;;;;13.81;100.00;99638.95;105892;1256;61773;-56
2023/04/27 04:33:31;;;;;;;6.00;3.30;;;;;;;13.92;100.00;99634.10;105739;1256;63113;-56
2023/04/27 04:35:58;;;;;;;6.90;3.10;;;;;;;14.03;100.00;99635.09;105639;1251;76277;-59
2023/04/27 04:38:25;;;;;;;6.50;3.60;;;;;;;14.15;100.00;99629.07;105301;1258;68195;-57
2023/04/27 04:40:53;;;;;;;6.20;3.20;;;;;;;14.24;100.00;99628.26;105562;1258;74956;-56
2023/04/27 04:43:20;;;;;;;4.00;2.70;;;;;;;14.30;100.00;99626.70;105703;1256;63063;-56
2023/04/27 04:45:47;;;;;;;4.70;3.20;;;;;;;14.39;100.00;99623.34;105711;1257;62857;-57
2023/04/27 04:48:15;;;;;;;7.30;3.60;;;;;;;14.50;100.00;99628.85;105738;1252;74985;-58
2023/04/27 04:50:44;;;;;;;6.50;3.10;;;;;;;14.63;100.00;99627.13;105698;1251;69606;-55
2023/04/27 04:53:11;;;;;;;7.80;3.30;;;;;;;14.80;100.00;99624.08;106123;1256;74897;-59
2023/04/27 04:55:39;;;;;;;6.00;3.60;;;;;;;14.96;100.00;99634.38;105607;1251;63443;-56
2023/04/27 04:58:07;;;;;;;6.20;3.20;;;;;;;15.06;100.00;99624.27;105716;1251;61660;-55
2023/04/27 05:00:34;;;;;;;5.40;3.30;;;;;;;15.17;100.00;99631.48;105420;1251;76374;-55
2023/04/27 05:03:01;;;;;;;6.90;3.30;;;;;;;15.36;100.00;99628.36;105681;1253;68443;-56
2023/04/27 05:05:29;;;;;;;6.80;3.50;;;;;;;15.70;100.00;99623.63;105878;1253;74046;-57
2023/04/27 05:07:56;;;;;;;8.10;3.60;;;;;;;16.18;100.00;99624.56;105694;1257;61722;-54
2023/04/27 05:10:23;;;;;;;6.00;3.30;;;;;;;16.74;100.00;99614.96;105896;1256;61563;-56
2023/04/27 05:12:50;;;;;;;6.30;3.30;;;;;;;17.30;100.00;99614.02;105780;1256;76573;-55
2023/04/27 05:15:18;;;;;;;4.70;3.20;;;;;;;17.87;100.00;99623.49;105851;1255;68499;-59
2023/04/27 05:17:45;;;;;;;12.10;3.60;;;;;;;18.20;100.00;99617.38;105543;1254;73998;-56
2023/04/27 05:20:12;;;;;;;6.20;3.60;;;;;;;18.18;100.00;99612.46;105766;1257;61618;-54
2023/04/27 05:22:40;;;;;;;7.40;3.30;;;;;;;17.93;100.00;99611.47;105927;1251;61786;-55
2023/04/27 05:25:07;;;;;;;7.70;3.10;;;;;;;17.58;100.00;99612.86;105619;1254;76222;-56
2023/04/27 05:27:35;;;;;;;5.80;3.70;;;;;;;17.25;100.00;99612.38;105815;1257;69839;-56
2023/04/27 05:30:03;;;;;;;6.50;3.00;;;;;;;16.99;100.00;99607.31;105763;1251;75190;-55
2023/04/27 05:32:32;;;;;;;10.20;3.40;;;;;;;16.74;100.00;99602.86;105603;1257;61631;-57
2023/04/27 05:35:00;;;;;;;6.80;3.70;;;;;;;16.49;100.00;99603.42;105796;1252;62664;-56
2023/04/27 05:37:27;;;;;;;6.70;3.20;;;;;;;16.22;100.00;99601.20;105833;1253;75287;-56
2023/04/27 05:39:54;;;;;;;9.00;3.40;;;;;;;16.00;100.00;99599.10;105850;1251;69780;-55
2023/04/27 05:42:21;;;;;;;11.10;3.90;;;;;;;15.78;100.00;99607.51;105798;1256;75056;-55
2023/04/27 05:44:48;;;;;;;6.40;3.20;;;;;;;15.57;100.00;99609.43;105722;1253;64483;-59
2023/04/27 05:47:16;;;;;;;6.60;3.70;;;;;;;15.41;100.00;99597.46;105926;1253;63052;-59
2023/04/27 05:49:43;;;;;;;7.80;3.90;;;;;;;15.29;100.00;99601.30;105379;1251;76872;-57
2023/04/27 05:52:10;;;;;;;8.40;3.80;;;;;;;15.23;100.00;99601.61;105710;1256;69110;-56
2023/04/27 05:54:37;;;;;;;10.00;3.80;;;;;;;15.21;100.00;99591.23;105745;1253;75776;-56
2023/04/27 05:57:05;;;;;;;7.20;3.80;;;;;;;15.25;100.00;99591.35;105821;1253;62737;-58
2023/04/27 05:59:32;;;;;;;8.30;3.30;;;;;;;15.28;100.00;99582.45;105419;1257;62683;-57
2023/04/27 06:01:59;;;;;;;7.20;3.70;;;;;;;15.33;100.00;99571.41;105739;1253;76179;-55
2023/04/27 06:04:26;;;;;;;8.70;4.00;;;;;;;15.38;100.00;99567.94;105799;1256;69511;-56
2023/04/27 06:06:53;;;;;;;10.80;4.50;;;;;;;15.36;100.00;99556.09;106005;1251;75370;-57
2023/04/27 06:09:20;;;;;;;7.80;4.10;;;;;;;15.20;100.00;99555.75;105745;1254;63248;-57
2023/04/27 06:11:48;;;;;;;9.10;4.00;;;;;;;15.07;100.00;99568.21;105699;1251;62511;-57
2023/04/27 06:14:15;;;;;;;9.50;4.00;;;;;;;15.00;100.00;99575.93;105723;1257;76058;-57
2023/04/27 06:16:42;;;;;;;8.00;4.00;;;;;;;15.00;100.00;99563.49;105748;1251;69754;-58
2023/04/27 06:19:10;;;;;;;9.60;3.80;;;;;;;15.08;100.00;99554.23;105897;1251;74899;-60
2023/04/27 06:21:37;;;;;;;11.30;4.10;;;;;;;15.25;100.00;99551.29;105871;1251;63425;-57
2023/04/27 06:24:05;;;;;;;7.00;3.70;;;;;;;15.52;100.00;99546.02;105779;1256;61463;-56
2023/04/27 06:26:32;;;;;;;6.50;3.80;;;;;;;15.91;100.00;99543.89;105844;1251;75268;-57
2023/04/27 06:28:59;;;;;;;9.60;4.10;;;;;;;16.38;100.00;99550.73;105884;1251;69241;-57
2023/04/27 06:31:26;;;;;;;6.10;3.40;;;;;;;16.91;100.00;99562.43;105962;1256;75134;-58
2023/04/27 06:33:54;;;;;;;6.30;3.50;;;;;;;17.55;100.00;99582.25;105525;1253;62927;-55
2023/04/27 06:36:21;;;;;;;6.30;3.70;;;;;;;18.30;100.00;99572.20;105778;1257;61476;-56
2023/04/27 06:38:48;;;;;;;11.70;4.10;;;;;;;19.08;100.00;99570.42;105783;1251;74973;-56
2023/04/27 06:41:15;;;;;;;6.00;3.80;;;;;;;19.97;100.00;99554.52;105798;1257;69285;-56
2023/04/27 06:43:42;;;;;;;6.80;3.80;;;;;;;20.89;100.00;99543.15;105805;1256;73776;-60
2023/04/27 06:46:09;;;;;;;8.00;4.50;;;;;;;21.91;100.00;99532.73;105701;1256;61898;-57
2023/04/27 06:48:37;;;;;;;7.60;4.60;;;;;;;23.00;100.00;99522.61;105723;1256;62770;-58
2023/04/27 06:51:04;;;;;;;6.10;3.30;;;;;;;23.85;100.00;99518.08;105863;1251;75411;-56
2023/04/27 06:53:32;;;;;;;7.30;3.40;;;;;;;24.33;100.00;99512.45;106221;1256;68457;-57
2023/04/27 06:55:59;;;;;;;8.30;3.70;;;;;;;24.54;100.00;99514.65;105600;1257;75750;-57
2023/04/27 07:06:11;;;;;;;9.80;4.40;;;;;;;26.25;100.00;99510.79;102618;1286;600213;-56
2023/04/27 07:08:39;;;;;;;9.60;3.80;;;;;;;26.44;96.10;99514.04;105649;1257;62918;-57
2023/04/27 07:11:06;;;;;;;4.80;3.20;;;;;;;26.28;91.80;99514.98;105705;1257;61809;-58
2023/04/27 07:13:33;;;;;;;5.90;3.70;;;;;;;26.03;90.92;99513.77;105427;1257;73852;-58
2023/04/27 07:16:01;;;;;;;6.00;3.60;;;;;;;26.01;95.23;99512.98;105676;1257;69551;-58
2023/04/27 07:18:28;;;;;;;5.50;3.50;;;;;;;25.98;90.91;99512.94;105700;1259;75182;-57
2023/04/27 07:20:56;;;;;;;6.40;4.00;;;;;;;25.89;98.05;99517.26;105705;1256;196108;-57
2023/04/27 07:23:24;;;;;;;5.20;3.60;;;;;;;25.61;95.87;99511.66;105785;1251;62818;-56
2023/04/27 07:25:51;;;;;;;6.50;3.60;;;;;;;25.17;99.51;99502.91;105942;1256;74867;-57
2023/04/27 07:28:18;;;;;;;6.20;3.10;;;;;;;24.65;99.74;99495.53;105957;1256;68689;-57
2023/04/27 07:30:46;;;;;;;9.00;4.50;;;;;;;24.21;100.00;99507.51;105939;1256;75398;-57
2023/04/27 07:33:14;;;;;;;5.40;3.60;;;;;;;23.83;100.00;99506.55;106097;1255;62836;-57
2023/04/27 07:35:41;;;;;;;7.10;3.40;;;;;;;23.46;100.00;99508.39;106030;1256;62588;-60
2023/04/27 07:38:08;;;;;;;6.00;3.50;;;;;;;23.05;100.00;99513.03;105676;1250;75582;-55
2023/04/27 07:40:35;;;;;;;8.50;3.70;;;;;;;22.69;100.00;99510.36;106047;1253;69548;-56
2023/04/27 07:43:03;;;;;;;6.50;3.50;;;;;;;22.41;100.00;99512.21;105846;1256;73744;-56
2023/04/27 07:45:48;;;;;;;6.50;3.20;;;;;;;22.25;100.00;99516.44;105697;1256;62022;-55
2023/04/27 07:48:15;;;;;;;8.00;4.00;;;;;;;22.14;100.00;99516.77;105852;1253;61133;-56
2023/04/27 07:50:43;;;;;;;5.70;3.10;;;;;;;22.00;100.00;99523.23;105969;1253;75453;-56
2023/04/27 07:53:10;;;;;;;7.40;3.10;;;;;;;21.95;100.00;99523.84;105884;1251;69609;-56
2023/04/27 07:55:37;;;;;;;7.50;3.40;;;;;;;21.98;100.00;99517.98;105847;1255;75240;-58
2023/04/27 07:58:10;;;;;;;7.30;3.60;;;;;;;21.97;100.00;99520.13;105917;1255;62795;-56
2023/04/27 08:00:37;;;;;;;7.60;4.00;;;;;;;21.90;100.00;99527.17;106054;1256;61755;-56
2023/04/27 08:03:04;;;;;;;7.10;4.10;;;;;;;21.79;100.00;99528.13;106074;1253;75590;-56
2023/04/27 08:05:32;;;;;;;8.50;3.40;;;;;;;21.64;100.00;99527.43;106205;1256;69249;-58
2023/04/27 08:08:00;;;;;;;10.00;3.90;;;;;;;21.52;100.00;99530.15;105957;1254;74008;-56
2023/04/27 08:10:27;;;;;;;7.50;3.10;;;;;;;21.46;100.00;99532.62;105750;1255;61780;-56
2023/04/27 08:12:55;;;;;;;8.40;3.50;;;;;;;21.45;100.00;99534.05;105854;1256;61739;-56
2023/04/27 08:15:22;;;;;;;6.60;3.10;;;;;;;21.45;100.00;99528.38;105904;1252;75367;-55
2023/04/27 08:17:49;;;;;;;8.30;3.10;;;;;;;21.49;100.00;99529.53;105779;1253;68273;-55
2023/04/27 08:20:16;;;;;;;7.40;3.00;;;;;;;21.60;100.00;99527.25;105844;1253;75270;-55
2023/04/27 08:22:43;;;;;;;6.10;3.20;;;;;;;21.76;100.00;99524.39;105823;1256;61423;-55
2023/04/27 08:25:11;;;;;;;8.80;2.90;;;;;;;21.86;100.00;99521.41;105899;1253;62709;-55
2023/04/27 08:27:38;;;;;;;7.70;3.60;;;;;;;21.89;100.00;99524.58;105974;1256;75297;-59
2023/04/27 08:30:07;;;;;;;8.00;3.10;;;;;;;21.88;100.00;99520.20;105562;1256;69553;-57
2023/04/27 08:32:34;;;;;;;8.40;2.60;;;;;;;21.84;100.00;99522.80;105934;1256;61415;-57
2023/04/27 08:35:02;;;;;;;6.10;2.40;;;;;;;21.78;100.00;99517.80;105757;1254;61874;-56
2023/04/27 08:37:29;;;;;;;6.10;3.00;;;;;;;21.72;100.00;99517.58;105931;1251;62556;-59
2023/04/27 08:39:56;;;;;;;6.00;2.50;;;;;;;21.74;100.00;99515.55;105774;1255;76092;-55
2023/04/27 08:42:24;;;;;;;4.00;1.90;;;;;;;21.79;100.00;99515.83;105746;1255;69611;-56
2023/04/27 08:44:51;;;;;;;4.80;2.30;;;;;;;21.87;100.00;99510.95;105771;1255;74117;-56
2023/04/27 08:47:18;;;;;;;7.70;3.10;;;;;;;21.95;100.00;99506.13;105844;1252;62942;-57
2023/04/27 08:50:00;;;;;;;8.60;2.60;;;;;;;22.05;100.00;99502.77;105826;1251;62651;-58
2023/04/27 08:52:27;;;;;;;4.90;2.70;;;;;;;22.19;100.00;99497.10;105899;1253;74515;-56
2023/04/27 08:54:55;;;;;;;5.70;2.40;;;;;;;22.34;100.00;99497.34;105940;1254;69438;-55
2023/04/27 08:57:22;;;;;;;6.60;2.90;;;;;;;22.48;100.00;99487.23;105491;1253;75021;-55
2023/04/27 08:59:58;;;;;;;5.80;2.10;;;;;;;22.72;100.00;99486.52;105891;1251;61685;-56
2023/04/27 09:02:28;;;;;;;5.60;2.20;;;;;;;22.93;100.00;99486.73;105977;1254;61645;-56
2023/04/27 09:04:55;;;;;;;4.50;2.10;;;;;;;23.16;96.30;99484.67;106077;1253;75544;-58
2023/04/27 09:07:23;;;;;;;6.70;2.30;;;;;;;23.26;87.93;99482.63;105779;1254;68473;-58
2023/04/27 09:10:02;;;;;;;4.20;1.70;;;;;;;23.26;89.58;99475.39;105804;1256;75513;-57
2023/04/27 09:12:29;;;;;;;5.30;2.20;;;;;;;23.30;84.51;99471.56;105809;1255;62838;-56
2023/04/27 09:15:02;;;;;;;4.20;1.90;;;;;;;23.37;87.89;99466.73;105875;1253;62663;-57
2023/04/27 09:17:30;;;;;;;3.60;1.60;;;;;;;23.71;92.72;99460.36;105761;1256;73730;-55
2023/04/27 09:20:12;;;;;;;3.30;1.70;;;;;;;24.26;85.12;99464.35;105939;1252;69666;-56
2023/04/27 09:22:46;;;;;;;5.00;2.00;;;;;;;24.81;70.83;99456.20;105849;1256;75263;-58
2023/04/27 09:25:32;;;;;;;4.70;1.70;;;;;;;25.21;59.09;99460.13;105485;1256;62965;-56
2023/04/27 09:28:00;;;;;;;5.70;2.30;;;;;;;25.40;53.79;99458.17;105871;1253;62651;-56
2023/04/27 09:30:27;;;;;;;5.90;2.10;;;;;;;25.31;48.54;99459.64;106294;1252;75569;-56
2023/04/27 09:33:02;;;;;;;6.10;2.50;;;;;;;25.10;50.29;99453.20;105925;1253;69461;-56
2023/04/27 09:35:32;;;;;;;5.40;3.30;;;;;;;24.95;55.05;99447.56;105807;1253;74806;-56
2023/04/27 09:37:59;;;;;;;6.50;3.40;;;;;;;24.91;54.33;99450.52;106035;1256;62576;-56
2023/04/27 09:40:28;;;;;;;4.80;2.50;;;;;;;24.88;47.48;99450.27;106146;1253;62517;-59
2023/04/27 09:43:02;;;;;;;7.00;3.80;;;;;;;24.75;43.11;99442.09;105810;1256;74892;-57
2023/04/27 09:45:29;;;;;;;4.70;3.20;;;;;;;24.64;42.64;99444.23;105756;1251;68431;-56
2023/04/27 09:47:57;;;;;;;8.20;4.30;;;;;;;24.73;43.95;99444.02;105844;1254;75348;-57
2023/04/27 09:50:24;;;;;;;9.90;4.80;;;;;;;24.98;42.29;99441.38;106273;1254;61545;-58
2023/04/27 09:52:51;;;;;;;7.00;4.40;;;;;;;25.13;41.58;99438.75;105623;1256;62233;-58
2023/04/27 09:55:22;;;;;;;6.50;3.90;;;;;;;25.20;40.78;99436.84;106065;1251;75219;-54
2023/04/27 09:58:25;;;;;;;5.70;2.50;;;;;;;25.27;40.90;99429.75;105784;1256;68517;-54
2023/04/27 10:01:06;;;;;;;7.50;2.40;;;;;;;25.25;39.44;99422.18;105708;1256;74191;-56
2023/04/27 10:04:02;;;;;;;4.40;2.20;;;;;;;25.07;39.77;99426.92;105654;1258;63034;-55
2023/04/27 10:06:33;;;;;;;3.00;1.70;;;;;;;24.89;38.42;99429.58;105808;1253;61448;-55
2023/04/27 10:09:05;;;;;;;6.60;3.30;;;;;;;24.75;39.36;99421.59;105907;1254;75333;-55
2023/04/27 10:11:37;;;;;;;6.40;2.90;;;;;;;24.65;39.59;99424.64;106024;1256;69603;-59
2023/04/27 10:14:07;;;;;;;4.80;2.40;;;;;;;24.58;41.12;99421.96;105798;1253;75386;-55
2023/04/27 10:16:45;;;;;;;6.10;2.80;;;;;;;24.66;43.10;99421.17;106001;1253;62847;-56
2023/04/27 10:19:12;;;;;;;5.10;2.50;;;;;;;24.88;42.95;99417.10;105969;1256;61505;-57
2023/04/27 10:21:50;;;;;;;4.30;2.20;;;;;;;25.04;42.06;99419.98;105496;1253;75557;-55
2023/04/27 10:24:17;;;;;;;5.30;2.30;;;;;;;25.14;41.36;99412.45;105950;1251;69794;-55
2023/04/27 10:26:46;;;;;;;4.60;1.80;;;;;;;25.17;41.98;99408.84;106194;1254;75705;-59
2023/04/27 10:29:15;;;;;;;4.40;1.70;;;;;;;25.19;40.77;99414.25;105674;1255;62724;-58
2023/04/27 10:31:43;;;;;;;4.80;2.20;;;;;;;25.10;41.05;99408.89;105804;1253;61783;-56
2023/04/27 10:34:14;;;;;;;4.40;2.40;;;;;;;25.03;43.64;99410.84;105880;1253;74774;-55
2023/04/27 10:36:41;;;;;;;4.80;2.20;;;;;;;25.05;43.49;99411.55;105831;1259;69346;-55
2023/04/27 10:39:26;;;;;;;6.30;2.10;;;;;;;25.00;45.06;99413.77;105636;1256;75629;-58
2023/04/27 10:42:10;;;;;;;5.50;2.70;;;;;;;25.04;44.53;99408.61;105845;1256;61560;-55
2023/04/27 10:44:37;;;;;;;3.00;1.90;;;;;;;25.10;45.75;99412.83;106132;1250;62914;-57
2023/04/27 10:47:15;;;;;;;2.80;1.50;;;;;;;25.17;45.15;99410.71;105563;1252;75387;-56
2023/04/27 10:49:42;;;;;;;5.00;1.80;;;;;;;25.15;44.01;99418.85;105844;1251;69503;-56
2023/04/27 10:52:09;;;;;;;5.00;1.80;;;;;;;25.11;44.93;99410.09;105987;1254;74570;-56
2023/04/27 10:54:38;;;;;;;4.70;1.30;;;;;;;25.13;46.35;99408.82;106069;1256;61793;-57
2023/04/27 10:57:06;;;;;;;6.60;2.00;;;;;;;25.31;44.66;99408.02;105629;1256;62774;-56
2023/04/27 10:59:34;;;;;;;3.90;1.70;;;;;;;25.49;43.83;99411.60;105843;1254;74717;-56
2023/04/27 11:02:02;;;;;;;6.40;1.60;;;;;;;25.59;43.95;99408.47;105992;1253;69564;-55
2023/04/27 11:04:37;;;;;;;3.80;1.60;;;;;;;25.72;44.32;99410.23;106092;1251;74151;-59
2023/04/27 11:07:08;;;;;;;7.20;1.80;;;;;;;25.88;43.16;99409.98;105823;1256;62775;-56
2023/04/27 11:09:36;;;;;;;;;;;;;;;25.97;42.96;99406.20;105973;1256;61767;-56
2023/04/27 11:12:11;;;;;;;4.70;1.50;;;;;;;25.91;42.02;99412.10;105929;1251;74334;-56
2023/04/27 11:14:38;;;;;;;3.60;1.60;;;;;;;25.77;42.91;99408.10;105817;1256;69596;-56
2023/04/27 11:17:05;;;;;;;4.70;2.10;;;;;;;25.74;44.46;99413.08;105545;1256;75667;-55
2023/04/27 11:19:43;;;;;;;8.90;2.70;;;;;;;25.88;46.17;99412.98;105781;1256;61921;-55
2023/04/27 11:22:10;;;;;;;4.00;1.30;;;;;;;26.03;47.36;99411.39;105781;1251;62530;-61
2023/04/27 11:24:46;;;;;;;2.70;1.40;;;;;;;26.07;49.67;99412.29;105705;1256;75815;-56
2023/04/27 11:27:13;;;;;;;5.40;1.60;;;;;;;26.12;49.27;99416.56;105906;1251;69544;-55
2023/04/27 11:29:41;;;;;;;9.40;2.40;;;;;;;26.10;50.44;99413.02;105870;1253;75235;-56
2023/04/27 11:32:17;;;;;;;7.80;4.20;;;;;;;26.14;50.07;99412.70;106336;1251;62029;-57